createdAt,value
2022-09-16T00:00:56.753Z,56.20
2022-09-16T00:03:25.488Z,56.26
2022-09-16T00:05:54.177Z,56.42
2022-09-16T00:08:22.876Z,56.05
2022-09-16T00:10:50.616Z,56.19
2022-09-16T00:13:18.914Z,56.11
2022-09-16T00:15:51.234Z,56.08
2022-09-16T00:18:20.382Z,56.10
2022-09-16T00:20:51.814Z,56.30
2022-09-16T00:23:19.954Z,56.35
2022-09-16T00:25:52.516Z,56.20
2022-09-16T00:28:21.602Z,56.41
2022-09-16T00:30:49.815Z,56.72
2022-09-16T00:33:17.622Z,56.35
2022-09-16T00:35:45.144Z,56.59
2022-09-16T00:38:14.254Z,56.56
2022-09-16T00:40:45.622Z,56.54
2022-09-16T00:43:15.009Z,56.75
2022-09-16T00:45:46.223Z,56.91
2022-09-16T00:48:21.431Z,56.82
2022-09-16T00:50:54.167Z,56.93
2022-09-16T00:53:28.494Z,56.91
2022-09-16T00:56:00.225Z,56.67
2022-09-16T00:58:40.799Z,57.01
2022-09-16T01:01:08.239Z,56.73
2022-09-16T01:03:44.718Z,56.50
2022-09-16T01:06:15.131Z,56.47
2022-09-16T01:08:45.841Z,56.51
2022-09-16T01:11:13.154Z,56.63
2022-09-16T01:13:42.712Z,56.62
2022-09-16T01:16:21.074Z,56.48
2022-09-16T01:19:01.095Z,56.62
2022-09-16T01:21:45.722Z,56.79
2022-09-16T01:24:48.870Z,57.27
2022-09-16T01:27:58.379Z,57.67
2022-09-16T01:30:54.013Z,57.66
2022-09-16T01:33:39.415Z,57.54
2022-09-16T01:36:31.314Z,57.55
2022-09-16T01:39:18.673Z,57.54
2022-09-16T01:42:10.482Z,57.43
2022-09-16T01:44:46.979Z,57.56
2022-09-16T01:47:27.402Z,57.22
2022-09-16T01:50:05.879Z,57.62
2022-09-16T01:52:46.139Z,57.30
2022-09-16T01:55:24.034Z,57.13
2022-09-16T01:57:59.692Z,57.08
2022-09-16T02:00:27.932Z,57.31
2022-09-16T02:03:02.301Z,57.49
2022-09-16T02:05:37.249Z,57.38
2022-09-16T02:08:11.052Z,57.44
2022-09-16T02:10:43.633Z,57.43
2022-09-16T02:13:19.395Z,57.76
2022-09-16T02:15:53.986Z,57.83
2022-09-16T02:18:28.152Z,57.93
2022-09-16T02:21:01.119Z,57.64
2022-09-16T02:23:37.645Z,57.66
2022-09-16T02:26:09.525Z,57.54
2022-09-16T02:28:44.014Z,57.61
2022-09-16T02:31:14.731Z,57.59
2022-09-16T02:33:53.961Z,57.70
2022-09-16T02:36:25.741Z,57.39
2022-09-16T02:38:57.989Z,57.32
2022-09-16T02:41:25.528Z,57.44
2022-09-16T02:43:52.941Z,57.41
2022-09-16T02:46:37.719Z,57.54
2022-09-16T02:49:17.215Z,57.33
2022-09-16T02:51:57.224Z,57.39
2022-09-16T02:54:39.473Z,57.71
2022-09-16T02:57:09.352Z,57.50
2022-09-16T02:59:37.810Z,57.36
2022-09-16T03:02:08.084Z,57.58
2022-09-16T03:04:36.878Z,57.34
2022-09-16T03:07:07.866Z,57.20
2022-09-16T03:09:40.170Z,57.31
2022-09-16T03:12:30.002Z,57.68
2022-09-16T03:15:18.757Z,57.58
2022-09-16T03:18:11.878Z,57.91
2022-09-16T03:20:51.545Z,57.83
2022-09-16T03:23:36.382Z,57.87
2022-09-16T03:26:15.409Z,58.17
2022-09-16T03:28:55.130Z,58.36
2022-09-16T03:31:30.210Z,58.26
2022-09-16T03:34:08.865Z,58.33
2022-09-16T03:36:45.833Z,58.31
2022-09-16T03:39:14.562Z,58.63
2022-09-16T03:41:43.056Z,58.35
2022-09-16T03:44:10.329Z,58.51
2022-09-16T03:46:37.737Z,58.59
2022-09-16T03:49:05.311Z,58.66
2022-09-16T03:51:32.655Z,58.67
2022-09-16T03:54:01.259Z,58.47
2022-09-16T03:56:28.534Z,58.48
2022-09-16T03:58:55.808Z,58.53
2022-09-16T04:01:23.121Z,58.54
2022-09-16T04:03:52.335Z,58.79
2022-09-16T04:06:19.947Z,58.73
2022-09-16T04:08:50.505Z,58.63
2022-09-16T04:11:19.223Z,58.48
2022-09-16T04:13:46.482Z,58.50
2022-09-16T04:16:21.457Z,58.62
2022-09-16T04:18:49.561Z,58.62
2022-09-16T04:21:17.721Z,59.01
2022-09-16T04:23:45.336Z,58.92
2022-09-16T04:26:12.656Z,58.76
2022-09-16T04:28:41.265Z,59.06
2022-09-16T04:31:13.748Z,59.13
2022-09-16T04:33:41.782Z,59.03
2022-09-16T04:36:12.700Z,58.80
2022-09-16T04:38:41.586Z,58.57
2022-09-16T04:41:13.115Z,58.76
2022-09-16T04:43:42.913Z,58.57
2022-09-16T04:46:10.917Z,58.39
2022-09-16T04:48:38.809Z,58.29
2022-09-16T04:51:11.054Z,58.23
2022-09-16T04:53:41.434Z,58.29
2022-09-16T04:56:15.602Z,58.32
2022-09-16T04:58:46.243Z,58.28
2022-09-16T05:01:19.712Z,58.20
2022-09-16T05:03:53.439Z,58.19
2022-09-16T05:06:24.103Z,57.96
2022-09-16T05:08:53.848Z,58.09
2022-09-16T05:11:24.177Z,58.28
2022-09-16T05:13:54.200Z,57.83
2022-09-16T05:16:23.922Z,58.15
2022-09-16T05:18:54.745Z,58.03
2022-09-16T05:21:24.557Z,58.27
2022-09-16T05:23:55.935Z,58.10
2022-09-16T05:26:26.327Z,58.31
2022-09-16T05:28:55.310Z,58.33
2022-09-16T05:31:26.567Z,58.25
2022-09-16T05:33:58.346Z,58.46
2022-09-16T05:36:27.952Z,58.81
2022-09-16T05:39:21.130Z,58.89
2022-09-16T05:41:44.660Z,58.72
2022-09-16T05:44:13.737Z,58.65
2022-09-16T05:46:41.905Z,58.86
2022-09-16T05:49:10.067Z,58.73
2022-09-16T05:51:38.938Z,59.14
2022-09-16T05:54:06.358Z,58.94
2022-09-16T05:56:34.146Z,58.92
2022-09-16T05:59:02.227Z,59.05
2022-09-16T06:01:33.344Z,58.76
2022-09-16T06:04:03.500Z,59.03
2022-09-16T06:06:33.156Z,58.88
2022-09-16T06:09:05.150Z,58.61
2022-09-16T06:11:36.717Z,58.66
2022-09-16T06:14:05.974Z,58.77
2022-09-16T06:16:35.491Z,58.46
2022-09-16T06:19:06.600Z,58.43
2022-09-16T06:21:34.428Z,58.37
2022-09-16T06:24:03.361Z,57.95
2022-09-16T06:26:30.679Z,57.95
2022-09-16T06:28:57.922Z,57.48
2022-09-16T06:31:27.959Z,57.62
2022-09-16T06:33:58.376Z,57.57
2022-09-16T06:36:32.382Z,57.12
2022-09-16T06:38:59.830Z,57.43
2022-09-16T06:41:27.441Z,56.82
2022-09-16T06:43:54.810Z,56.77
2022-09-16T06:46:26.549Z,56.77
2022-09-16T06:48:59.283Z,56.72
2022-09-16T06:51:31.780Z,56.41
2022-09-16T06:54:02.696Z,56.25
2022-09-16T06:56:30.092Z,56.05
2022-09-16T06:58:58.418Z,56.09
2022-09-16T07:01:29.253Z,55.80
2022-09-16T07:04:02.762Z,55.45
2022-09-16T07:06:58.297Z,54.56
2022-09-16T07:09:20.279Z,52.30
2022-09-16T07:11:47.561Z,50.39
2022-09-16T07:14:14.841Z,48.69
2022-09-16T07:16:42.134Z,47.36
2022-09-16T07:19:10.962Z,46.23
2022-09-16T07:21:38.282Z,45.61
2022-09-16T07:24:05.911Z,44.06
2022-09-16T07:26:37.756Z,43.37
2022-09-16T07:29:10.005Z,41.90
2022-09-16T07:31:38.469Z,41.07
2022-09-16T07:34:08.905Z,40.75
2022-09-16T07:36:41.156Z,39.05
2022-09-16T07:39:09.371Z,38.06
2022-09-16T07:41:40.007Z,36.68
2022-09-16T07:44:11.242Z,35.35
2022-09-16T07:46:38.797Z,35.24
2022-09-16T07:49:09.534Z,34.48
2022-09-16T07:51:38.336Z,34.11
2022-09-16T07:54:09.605Z,33.69
2022-09-16T07:56:39.817Z,33.09
2022-09-16T07:59:13.071Z,32.39
2022-09-16T08:01:43.865Z,31.92
2022-09-16T08:04:12.107Z,31.56
2022-09-16T08:06:41.295Z,30.83
2022-09-16T08:09:27.247Z,30.16
2022-09-16T08:11:57.824Z,29.97
2022-09-16T08:14:25.475Z,30.07
2022-09-16T08:16:53.006Z,29.68
2022-09-16T08:19:22.301Z,29.18
2022-09-16T08:21:51.918Z,28.34
2022-09-16T08:24:19.426Z,27.12
2022-09-16T08:26:46.704Z,27.27
2022-09-16T08:29:14.365Z,27.14
2022-09-16T08:31:41.955Z,25.99
2022-09-16T08:34:09.259Z,26.06
2022-09-16T08:36:37.191Z,25.71
2022-09-16T08:39:06.570Z,25.72
2022-09-16T08:42:00.198Z,25.10
2022-09-16T08:44:41.878Z,24.82
2022-09-16T08:47:27.652Z,24.65
2022-09-16T08:49:58.763Z,23.94
2022-09-16T08:52:32.210Z,24.19
2022-09-16T08:55:07.927Z,23.65
2022-09-16T08:57:41.588Z,22.84
2022-09-16T09:00:17.548Z,22.99
2022-09-16T09:02:53.855Z,22.48
2022-09-16T09:05:35.667Z,22.45
2022-09-16T09:08:21.566Z,21.18
2022-09-16T09:10:57.418Z,21.00
2022-09-16T09:13:57.199Z,20.97
2022-09-16T09:16:38.086Z,20.34
2022-09-16T09:19:31.494Z,20.47
2022-09-16T09:22:16.512Z,20.57
2022-09-16T09:25:20.470Z,20.23
2022-09-16T09:28:12.798Z,19.64
2022-09-16T09:30:50.369Z,19.97
2022-09-16T09:36:45.494Z,18.71
2022-09-16T09:39:40.628Z,19.53
2022-09-16T09:42:18.622Z,20.13
2022-09-16T09:44:58.508Z,20.51
2022-09-16T09:47:36.991Z,20.87
2022-09-16T09:50:17.825Z,21.42
2022-09-16T09:52:54.292Z,21.68
2022-09-16T09:55:24.874Z,21.91
2022-09-16T09:58:12.184Z,21.28
2022-09-16T10:00:41.533Z,21.08
2022-09-16T10:03:14.574Z,22.40
2022-09-16T10:05:42.196Z,23.83
2022-09-16T10:08:22.814Z,25.47
2022-09-16T10:10:52.763Z,26.58
2022-09-16T10:13:22.223Z,27.29
2022-09-16T10:15:55.804Z,27.19
2022-09-16T10:18:30.001Z,27.31
2022-09-16T10:21:04.834Z,26.38
2022-09-16T10:23:33.836Z,26.54
2022-09-16T10:26:20.207Z,26.09
2022-09-16T10:28:57.311Z,26.45
2022-09-16T10:31:34.378Z,26.94
2022-09-16T10:34:05.480Z,26.87
2022-09-16T10:36:35.810Z,26.85
2022-09-16T10:39:05.693Z,26.10
2022-09-16T10:41:40.827Z,26.48
2022-09-16T10:44:17.476Z,26.66
2022-09-16T10:46:54.850Z,26.91
2022-09-16T10:49:29.582Z,27.59
2022-09-16T10:52:16.718Z,28.23
2022-09-16T10:54:45.107Z,28.91
2022-09-16T10:57:26.705Z,29.25
2022-09-16T11:00:08.883Z,28.65
2022-09-16T11:03:24.120Z,29.09
2022-09-16T11:06:07.618Z,28.65
2022-09-16T11:08:54.816Z,28.25
2022-09-16T11:11:49.691Z,29.24
2022-09-16T11:14:37.525Z,29.59
2022-09-16T11:17:29.979Z,30.18
2022-09-16T11:20:35.528Z,29.65
2022-09-16T11:23:21.056Z,29.59
2022-09-16T11:26:00.676Z,29.72
2022-09-16T11:29:06.051Z,29.34
2022-09-16T11:31:51.987Z,29.11
2022-09-16T11:34:39.655Z,28.72
2022-09-16T11:37:19.505Z,28.57
2022-09-16T11:40:11.617Z,29.03
2022-09-16T11:42:43.608Z,29.50
2022-09-16T11:45:36.730Z,30.39
2022-09-16T11:48:39.858Z,31.77
2022-09-16T11:51:25.086Z,33.41
2022-09-16T11:57:02.640Z,34.81
2022-09-16T11:59:39.786Z,35.73
2022-09-16T12:02:20.921Z,35.76
2022-09-16T12:04:56.993Z,36.14
2022-09-16T12:07:38.642Z,36.12
2022-09-16T12:10:21.122Z,36.51
2022-09-16T12:12:57.705Z,36.74
2022-09-16T12:15:30.077Z,36.84
2022-09-16T12:18:06.640Z,36.11
2022-09-16T12:20:40.648Z,36.16
2022-09-16T12:23:18.683Z,35.88
2022-09-16T12:26:05.869Z,35.64
2022-09-16T12:28:42.977Z,35.89
2022-09-16T12:31:23.022Z,35.75
2022-09-16T12:33:58.888Z,36.04
2022-09-16T12:36:32.512Z,36.14
2022-09-16T12:39:01.409Z,35.59
2022-09-16T12:42:33.260Z,35.60
2022-09-16T12:45:31.305Z,35.92
2022-09-16T12:48:31.248Z,35.98
2022-09-16T12:51:23.676Z,35.81
2022-09-16T12:54:41.289Z,35.81
2022-09-16T12:57:42.638Z,35.49
2022-09-16T13:00:22.049Z,35.93
2022-09-16T13:02:55.233Z,35.56
2022-09-16T13:05:30.959Z,34.91
2022-09-16T13:08:06.793Z,35.08
2022-09-16T13:10:54.947Z,34.54
2022-09-16T13:13:35.507Z,34.33
2022-09-16T13:16:07.000Z,34.09
2022-09-16T13:18:49.145Z,34.14
2022-09-16T13:21:27.143Z,33.70
2022-09-16T13:24:05.280Z,34.63
2022-09-16T13:26:44.812Z,37.28
2022-09-16T13:29:43.901Z,38.19
2022-09-16T13:32:28.958Z,37.49
2022-09-16T13:35:06.141Z,37.56
2022-09-16T13:37:33.639Z,37.53
2022-09-16T13:40:18.248Z,37.45
2022-09-16T13:42:45.594Z,37.56
2022-09-16T13:45:35.433Z,37.78
2022-09-16T13:48:12.916Z,37.93
2022-09-16T13:50:45.841Z,37.73
2022-09-16T13:53:27.907Z,38.71
2022-09-16T13:56:06.143Z,38.35
2022-09-16T13:58:42.312Z,38.39
2022-09-16T14:01:28.033Z,38.43
2022-09-16T14:04:13.235Z,38.81
2022-09-16T14:07:00.445Z,39.63
2022-09-16T14:09:47.151Z,39.63
2022-09-16T14:12:23.648Z,39.73
2022-09-16T14:14:52.230Z,39.83
2022-09-16T14:17:25.753Z,39.83
2022-09-16T14:19:58.996Z,39.09
2022-09-16T14:22:28.001Z,39.08
2022-09-16T14:25:06.308Z,39.50
2022-09-16T14:27:40.480Z,39.07
2022-09-16T14:30:20.535Z,39.38
2022-09-16T14:32:53.018Z,39.76
2022-09-16T14:35:24.847Z,39.98
2022-09-16T14:37:57.217Z,40.80
2022-09-16T14:40:27.171Z,40.79
2022-09-16T14:43:03.253Z,41.16
2022-09-16T14:45:33.146Z,41.21
2022-09-16T14:48:08.611Z,41.59
2022-09-16T14:50:42.616Z,42.02
2022-09-16T14:53:34.761Z,42.95
2022-09-16T14:56:03.967Z,43.14
2022-09-16T14:58:33.867Z,43.68
2022-09-16T15:01:09.069Z,43.95
2022-09-16T15:03:49.921Z,44.54
2022-09-16T15:06:22.969Z,45.80
2022-09-16T15:08:58.605Z,46.23
2022-09-16T15:11:48.701Z,46.92
2022-09-16T15:14:18.025Z,47.33
2022-09-16T15:16:51.433Z,48.83
2022-09-16T15:19:25.337Z,49.52
2022-09-16T15:21:53.525Z,49.98
2022-09-16T15:24:25.985Z,50.70
2022-09-16T15:26:54.105Z,50.69
2022-09-16T15:29:34.111Z,51.19
2022-09-16T15:32:20.950Z,51.88
2022-09-16T15:35:10.461Z,52.28
2022-09-16T15:37:38.065Z,52.91
2022-09-16T15:40:31.665Z,53.84
2022-09-16T15:43:12.208Z,54.15
2022-09-16T15:45:40.133Z,54.07
2022-09-16T15:48:17.466Z,54.51
2022-09-16T15:50:51.183Z,54.96
2022-09-16T15:53:34.165Z,55.70
2022-09-16T15:56:08.077Z,55.73
2022-09-16T15:58:41.939Z,56.50
2022-09-16T16:01:15.752Z,57.19
2022-09-16T16:03:54.729Z,57.19
2022-09-16T16:06:46.489Z,57.81
2022-09-16T16:09:44.272Z,58.19
2022-09-16T16:12:16.332Z,58.39
2022-09-16T16:14:46.557Z,58.77
2022-09-16T16:17:17.163Z,58.97
2022-09-16T16:19:46.925Z,58.98
2022-09-16T16:22:16.581Z,59.40
2022-09-16T16:24:45.401Z,59.59
2022-09-16T16:27:12.821Z,59.71
2022-09-16T16:29:40.270Z,59.59
2022-09-16T16:32:09.974Z,59.91
2022-09-16T16:34:41.003Z,59.83
2022-09-16T16:37:19.161Z,59.58
2022-09-16T16:39:57.418Z,60.06
2022-09-16T16:42:25.261Z,60.09
2022-09-16T16:44:52.592Z,59.95
2022-09-16T16:47:19.836Z,59.93
2022-09-16T16:49:51.332Z,59.74
2022-09-16T16:52:19.230Z,59.78
2022-09-16T16:54:46.710Z,59.52
2022-09-16T16:57:15.329Z,59.53
2022-09-16T16:59:42.625Z,59.62
2022-09-16T17:02:11.723Z,59.83
2022-09-16T17:04:39.102Z,60.31
2022-09-16T17:07:25.255Z,59.98
2022-09-16T17:09:54.014Z,60.34
2022-09-16T17:12:22.664Z,60.16
2022-09-16T17:14:50.172Z,60.38
2022-09-16T17:17:17.540Z,60.25
2022-09-16T17:19:44.969Z,60.42
2022-09-16T17:22:12.267Z,60.44
2022-09-16T17:24:39.622Z,60.52
2022-09-16T17:27:06.905Z,60.93
2022-09-16T17:29:35.565Z,61.17
2022-09-16T17:32:03.514Z,61.38
2022-09-16T17:34:31.269Z,61.40
2022-09-16T17:36:58.879Z,61.55
2022-09-16T17:39:26.746Z,61.44
2022-09-16T17:41:56.551Z,61.52
2022-09-16T17:44:24.819Z,61.54
2022-09-16T17:46:53.755Z,61.61
2022-09-16T17:49:23.934Z,61.87
2022-09-16T17:51:53.357Z,62.24
2022-09-16T17:54:21.322Z,62.57
2022-09-16T17:56:48.826Z,62.96
2022-09-16T17:59:19.283Z,63.38
2022-09-16T18:01:47.287Z,63.66
2022-09-16T18:04:16.016Z,63.95
2022-09-16T18:06:46.773Z,64.00
2022-09-16T18:09:16.552Z,63.81
2022-09-16T18:11:44.915Z,63.95
2022-09-16T18:14:13.921Z,63.97
2022-09-16T18:16:42.900Z,64.32
2022-09-16T18:19:10.234Z,64.14
2022-09-16T18:21:39.019Z,64.08
2022-09-16T18:24:11.254Z,64.47
2022-09-16T18:26:39.201Z,64.26
2022-09-16T18:29:10.024Z,64.14
2022-09-16T18:31:38.500Z,63.93
2022-09-16T18:34:06.024Z,64.11
2022-09-16T18:36:35.191Z,63.79
2022-09-16T18:39:06.024Z,63.88
2022-09-16T18:41:37.762Z,64.05
2022-09-16T18:44:10.688Z,64.04
2022-09-16T18:46:38.955Z,64.31
2022-09-16T18:49:07.017Z,64.18
2022-09-16T18:51:37.680Z,63.86
2022-09-16T18:54:10.146Z,64.20
2022-09-16T18:56:39.482Z,63.94
2022-09-16T18:59:28.133Z,63.83
2022-09-16T19:01:58.850Z,63.72
2022-09-16T19:04:29.430Z,63.68
2022-09-16T19:07:05.934Z,63.76
2022-09-16T19:09:37.269Z,63.79
2022-09-16T19:12:06.815Z,63.83
2022-09-16T19:14:34.369Z,63.79
2022-09-16T19:17:02.695Z,63.67
2022-09-16T19:19:30.012Z,63.56
2022-09-16T19:21:57.583Z,63.61
2022-09-16T19:24:27.100Z,63.65
2022-09-16T19:26:56.186Z,63.61
2022-09-16T19:29:23.824Z,63.57
2022-09-16T19:31:52.963Z,63.38
2022-09-16T19:34:21.728Z,63.28
2022-09-16T19:36:49.633Z,63.34
2022-09-16T19:39:17.610Z,63.26
2022-09-16T19:41:45.241Z,63.15
2022-09-16T19:44:17.464Z,63.05
2022-09-16T19:46:47.005Z,63.08
2022-09-16T19:49:17.734Z,63.04
2022-09-16T19:51:45.169Z,63.17
2022-09-16T19:54:12.789Z,62.81
2022-09-16T19:56:40.206Z,62.94
2022-09-16T19:59:07.974Z,62.95
2022-09-16T20:01:37.467Z,62.95
2022-09-16T20:04:07.758Z,63.16
2022-09-16T20:06:37.552Z,63.09
2022-09-16T20:09:07.721Z,63.17
2022-09-16T20:11:38.304Z,63.42
2022-09-16T20:14:08.621Z,63.14
2022-09-16T20:16:39.810Z,63.43
2022-09-16T20:19:10.171Z,63.33
2022-09-16T20:21:38.553Z,63.44
2022-09-16T20:24:08.383Z,63.23
2022-09-16T20:26:36.164Z,63.49
2022-09-16T20:29:05.206Z,63.16
2022-09-16T20:31:36.535Z,63.32
2022-09-16T20:34:05.376Z,63.63
2022-09-16T20:36:38.216Z,63.55
2022-09-16T20:39:07.175Z,63.49
2022-09-16T20:41:37.102Z,63.52
2022-09-16T20:44:05.670Z,63.55
2022-09-16T20:46:37.198Z,63.53
2022-09-16T20:49:09.415Z,63.45
2022-09-16T20:51:37.232Z,63.83
2022-09-16T20:54:08.817Z,63.78
2022-09-16T20:56:39.350Z,63.80
2022-09-16T20:59:07.733Z,63.63
2022-09-16T21:01:38.070Z,63.75
2022-09-16T21:04:08.569Z,63.73
2022-09-16T21:06:36.763Z,63.89
2022-09-16T21:09:08.236Z,63.72
2022-09-16T21:11:35.973Z,64.13
2022-09-16T21:14:08.876Z,63.62
2022-09-16T21:16:40.471Z,63.75
2022-09-16T21:19:10.943Z,63.81
2022-09-16T21:21:41.285Z,63.64
2022-09-16T21:24:09.689Z,63.80
2022-09-16T21:26:39.389Z,63.61
2022-09-16T21:29:10.947Z,64.04
2022-09-16T21:31:42.377Z,64.02
2022-09-16T21:34:13.672Z,63.68
2022-09-16T21:36:41.560Z,63.85
2022-09-16T21:39:09.332Z,63.74
2022-09-16T21:41:37.343Z,63.90
2022-09-16T21:44:05.068Z,63.65
2022-09-16T21:46:41.306Z,63.77
2022-09-16T21:49:18.158Z,64.09
2022-09-16T21:51:45.521Z,64.04
2022-09-16T21:54:16.605Z,63.92
2022-09-16T21:56:46.667Z,64.04
2022-09-16T21:59:14.075Z,64.38
2022-09-16T22:01:41.395Z,64.42
2022-09-16T22:04:14.122Z,64.25
2022-09-16T22:06:42.202Z,64.38
2022-09-16T22:09:11.304Z,63.83
2022-09-16T22:11:41.345Z,64.17
2022-09-16T22:14:11.162Z,64.14
2022-09-16T22:16:39.486Z,63.76
2022-09-16T22:19:11.805Z,64.21
2022-09-16T22:21:44.185Z,64.12
2022-09-16T22:24:12.055Z,64.40
2022-09-16T22:26:39.838Z,64.53
2022-09-16T22:29:09.370Z,64.45
2022-09-16T22:31:40.552Z,64.18
2022-09-16T22:34:09.088Z,64.19
2022-09-16T22:36:38.417Z,64.33
2022-09-16T22:39:13.776Z,64.48
2022-09-16T22:41:41.643Z,64.11
2022-09-16T22:44:08.913Z,64.03
2022-09-16T22:46:42.146Z,63.80
2022-09-16T22:49:10.039Z,64.46
2022-09-16T22:51:37.810Z,64.30
2022-09-16T22:54:07.504Z,64.12
2022-09-16T22:56:35.903Z,64.19
2022-09-16T22:59:06.676Z,64.37
2022-09-16T23:01:38.246Z,64.35
2022-09-16T23:04:08.043Z,64.37
2022-09-16T23:06:37.321Z,64.39
2022-09-16T23:09:08.478Z,63.63
2022-09-16T23:11:36.620Z,63.82
2022-09-16T23:14:06.530Z,63.99
2022-09-16T23:16:37.219Z,63.67
2022-09-16T23:19:07.867Z,63.47
2022-09-16T23:21:36.187Z,63.49
2022-09-16T23:24:08.654Z,63.43
2022-09-16T23:26:38.945Z,62.94
2022-09-16T23:29:09.950Z,63.47
2022-09-16T23:31:40.371Z,63.34
2022-09-16T23:34:11.209Z,63.21
2022-09-16T23:36:39.152Z,63.25
2022-09-16T23:39:09.049Z,63.13
2022-09-16T23:41:36.624Z,63.14
2022-09-16T23:44:04.180Z,63.29
2022-09-16T23:46:31.986Z,63.46
2022-09-16T23:49:00.477Z,63.53
2022-09-16T23:51:29.534Z,63.55
2022-09-16T23:53:59.297Z,63.58
2022-09-16T23:56:28.292Z,63.38
2022-09-16T23:59:00.511Z,63.53
